Time;durP1;ratioP1;P1;durP2;ratioP2;P2;SDS_P1;SDS_P2;PMS_P1;PMS_P2;Temp;Humidity;BMP_temperature;BMP_pressure;BME280_temperature;BME280_humidity;BME280_pressure;Samples;Min_cycle;Max_cycle;Signal;HPM_P1;HPM_P2
2022/12/13 00:00:19;;;;;;;10.10;8.05;;;;;;;;;;6110895;23;20020;-91
2022/12/13 00:02:53;;;;;;;8.38;7.20;;;;;;;;;;6160185;23;20017;-91
2022/12/13 00:05:35;;;;;;;10.70;8.07;;;;;;;;;;6181339;23;20072;-92
2022/12/13 00:08:25;;;;;;;10.35;8.73;;;;;;;;;;6112161;23;20017;-92
2022/12/13 00:11:06;;;;;;;11.13;8.32;;;;;;;;;;6160520;23;20349;-92
2022/12/13 00:13:42;;;;;;;9.60;7.97;;;;;;;;;;6111098;23;20100;-92
2022/12/13 00:16:34;;;;;;;10.75;8.07;;;;;;;;;;6139035;23;20405;-91
2022/12/13 00:19:27;;;;;;;10.20;7.72;;;;;;;;;;6185918;23;20029;-91
2022/12/13 00:22:01;;;;;;;10.88;8.55;;;;;;;;;;6113092;23;20020;-91
2022/12/13 00:24:33;;;;;;;10.52;8.43;;;;;;;;;;6112097;23;20408;-91
2022/12/13 00:27:09;;;;;;;8.60;7.18;;;;;;;;;;6138515;23;20013;-91
2022/12/13 00:29:39;;;;;;;10.10;7.43;;;;;;;;;;6112669;23;20773;-91
2022/12/13 00:32:17;;;;;;;10.80;8.20;;;;;;;;;;6112431;23;20017;-91
2022/12/13 00:34:48;;;;;;;11.23;8.40;;;;;;;;;;6137050;23;20345;-91
2022/12/13 00:37:20;;;;;;;11.00;8.07;;;;;;;;;;6136137;23;20416;-92
2022/12/13 00:39:55;;;;;;;11.57;8.02;;;;;;;;;;6113549;23;20072;-91
2022/12/13 00:42:26;;;;;;;9.57;7.90;;;;;;;;;;6160541;23;20408;-90
2022/12/13 00:44:59;;;;;;;9.55;7.50;;;;;;;;;;6136474;23;20112;-91
2022/12/13 00:47:35;;;;;;;9.90;7.95;;;;;;;;;;6136035;23;20020;-91
2022/12/13 00:50:18;;;;;;;11.50;8.90;;;;;;;;;;6161267;23;20092;-92
2022/12/13 00:52:59;;;;;;;10.35;8.18;;;;;;;;;;6160555;23;20091;-92
2022/12/13 00:55:34;;;;;;;11.20;7.50;;;;;;;;;;6160523;23;20464;-90
2022/12/13 00:58:11;;;;;;;12.02;8.45;;;;;;;;;;6112228;23;20021;-91
2022/12/13 01:01:06;;;;;;;10.45;8.05;;;;;;;;;;6160074;23;20016;-91
2022/12/13 01:03:46;;;;;;;10.85;8.18;;;;;;;;;;6184892;23;20401;-91
2022/12/13 01:06:23;;;;;;;11.38;7.57;;;;;;;;;;6136990;23;20353;-91
2022/12/13 01:08:54;;;;;;;9.63;7.93;;;;;;;;;;6113553;23;20071;-92
2022/12/13 01:11:33;;;;;;;9.50;7.68;;;;;;;;;;6112357;23;20017;-92
2022/12/13 01:14:08;;;;;;;10.35;8.05;;;;;;;;;;6113986;23;20013;-92
2022/12/13 01:16:45;;;;;;;10.02;7.15;;;;;;;;;;6138808;23;20386;-91
2022/12/13 01:19:25;;;;;;;12.18;7.47;;;;;;;;;;6185141;23;20357;-90
2022/12/13 01:22:10;;;;;;;9.65;8.45;;;;;;;;;;6136217;23;20020;-92
2022/12/13 01:24:48;;;;;;;10.25;8.10;;;;;;;;;;6161718;23;20017;-91
2022/12/13 01:27:21;;;;;;;8.40;7.47;;;;;;;;;;6136229;23;20067;-92
2022/12/13 01:29:55;;;;;;;9.48;7.22;;;;;;;;;;6184601;23;20020;-91
2022/12/13 01:32:34;;;;;;;9.20;7.45;;;;;;;;;;6112075;23;20013;-91
2022/12/13 01:35:04;;;;;;;9.52;7.30;;;;;;;;;;6136558;23;20326;-92
2022/12/13 01:37:39;;;;;;;9.85;7.57;;;;;;;;;;6112432;23;20017;-91
2022/12/13 01:40:13;;;;;;;8.90;7.13;;;;;;;;;;6160408;23;20017;-91
2022/12/13 01:42:44;;;;;;;9.07;7.63;;;;;;;;;;6135556;23;20021;-91
2022/12/13 01:45:27;;;;;;;9.43;7.00;;;;;;;;;;6111837;23;20553;-91
2022/12/13 01:48:02;;;;;;;8.35;7.28;;;;;;;;;;6112780;23;20013;-91
2022/12/13 01:50:41;;;;;;;9.93;8.13;;;;;;;;;;6135733;23;20017;-92
2022/12/13 01:53:21;;;;;;;10.02;7.50;;;;;;;;;;6141378;23;20075;-91
2022/12/13 01:56:05;;;;;;;9.10;7.28;;;;;;;;;;6112006;23;20431;-91
2022/12/13 01:58:39;;;;;;;11.20;8.85;;;;;;;;;;6111588;23;20012;-91
2022/12/13 02:01:16;;;;;;;9.27;7.13;;;;;;;;;;6112133;23;20361;-91
2022/12/13 02:03:55;;;;;;;8.77;6.95;;;;;;;;;;6161227;23;20381;-91
2022/12/13 02:06:36;;;;;;;8.25;6.65;;;;;;;;;;6138886;23;20112;-91
2022/12/13 02:09:19;;;;;;;10.57;8.23;;;;;;;;;;6184898;23;20400;-92
2022/12/13 02:11:52;;;;;;;8.15;7.22;;;;;;;;;;6111759;23;20465;-91
2022/12/13 02:14:27;;;;;;;8.65;6.60;;;;;;;;;;6112471;23;20423;-91
2022/12/13 02:17:23;;;;;;;9.00;7.07;;;;;;;;;;6136024;23;20096;-91
2022/12/13 02:20:04;;;;;;;8.13;7.15;;;;;;;;;;6135241;23;20013;-92
2022/12/13 02:23:31;;;;;;;7.90;6.88;;;;;;;;;;6135149;23;20028;-92
2022/12/13 02:26:07;;;;;;;8.75;6.57;;;;;;;;;;6092466;23;20110;-90
2022/12/13 02:28:51;;;;;;;8.80;6.88;;;;;;;;;;6021039;23;20101;-91
2022/12/13 02:31:42;;;;;;;9.02;7.18;;;;;;;;;;6144686;23;20044;-91
2022/12/13 02:34:09;;;;;;;8.30;7.18;;;;;;;;;;6159332;23;20469;-91
2022/12/13 02:36:55;;;;;;;8.05;6.15;;;;;;;;;;6135702;23;20021;-91
2022/12/13 02:39:25;;;;;;;9.55;6.82;;;;;;;;;;6110610;23;20009;-92
2022/12/13 02:42:00;;;;;;;8.77;7.00;;;;;;;;;;6110284;23;20071;-91
2022/12/13 02:44:33;;;;;;;8.15;6.63;;;;;;;;;;6134639;23;20016;-91
2022/12/13 02:47:01;;;;;;;8.80;6.93;;;;;;;;;;6110225;23;20036;-91
2022/12/13 02:49:35;;;;;;;8.82;6.95;;;;;;;;;;6110700;23;20009;-92
2022/12/13 02:52:03;;;;;;;8.30;6.72;;;;;;;;;;6134496;23;20402;-92
2022/12/13 02:54:32;;;;;;;8.98;6.70;;;;;;;;;;6134659;23;20021;-92
2022/12/13 02:56:58;;;;;;;9.85;6.80;;;;;;;;;;6109895;23;20009;-91
2022/12/13 02:59:33;;;;;;;7.13;5.72;;;;;;;;;;6135163;23;20009;-91
2022/12/13 03:02:27;;;;;;;8.90;6.75;;;;;;;;;;6110595;23;20029;-91
2022/12/13 03:08:22;;;;;;;;;;;;;;;;;;6145314;23;20013;-91
2022/12/13 03:11:16;;;;;;;7.63;5.95;;;;;;;;;;6159207;23;19904;-91
2022/12/13 03:14:01;;;;;;;8.05;6.05;;;;;;;;;;6134781;23;20040;-91
2022/12/13 03:16:39;;;;;;;9.05;7.05;;;;;;;;;;6134382;23;20013;-91
2022/12/13 03:19:07;;;;;;;8.02;5.68;;;;;;;;;;6110420;23;20472;-91
2022/12/13 03:21:40;;;;;;;8.35;6.55;;;;;;;;;;6109976;23;20009;-90
2022/12/13 03:24:09;;;;;;;7.05;6.22;;;;;;;;;;6110566;23;20020;-90
2022/12/13 03:26:38;;;;;;;9.02;6.53;;;;;;;;;;6109945;23;20088;-90
2022/12/13 03:29:06;;;;;;;7.65;6.05;;;;;;;;;;6135003;23;20016;-91
2022/12/13 03:31:34;;;;;;;7.50;5.95;;;;;;;;;;6134235;23;20017;-90
2022/12/13 03:34:02;;;;;;;8.52;5.57;;;;;;;;;;6134629;23;20107;-90
2022/12/13 03:36:30;;;;;;;7.72;6.80;;;;;;;;;;6134832;23;20009;-91
2022/12/13 03:38:59;;;;;;;7.80;5.82;;;;;;;;;;6134554;23;20020;-89
2022/12/13 03:41:30;;;;;;;7.93;6.20;;;;;;;;;;6134600;23;20010;-90
2022/12/13 03:43:59;;;;;;;8.00;6.28;;;;;;;;;;6136026;23;20009;-90
2022/12/13 03:46:27;;;;;;;7.63;6.40;;;;;;;;;;6110682;23;20051;-90
2022/12/13 03:48:55;;;;;;;7.68;6.47;;;;;;;;;;6134025;23;20096;-90
2022/12/13 03:51:24;;;;;;;7.65;6.50;;;;;;;;;;6133732;23;20091;-90
2022/12/13 03:54:00;;;;;;;7.60;5.80;;;;;;;;;;6134132;23;20076;-90
2022/12/13 03:56:29;;;;;;;8.48;6.38;;;;;;;;;;6134746;23;20036;-90
2022/12/13 03:59:01;;;;;;;7.65;6.18;;;;;;;;;;6134692;23;20036;-91
2022/12/13 04:01:26;;;;;;;7.55;5.68;;;;;;;;;;6134539;23;20013;-89
2022/12/13 04:03:54;;;;;;;7.35;5.38;;;;;;;;;;6134502;23;20017;-90
2022/12/13 04:06:24;;;;;;;6.93;5.70;;;;;;;;;;6134110;23;20080;-92
2022/12/13 04:08:51;;;;;;;7.85;6.03;;;;;;;;;;6110286;23;20013;-92
2022/12/13 04:14:04;;;;;;;7.60;5.85;;;;;;;;;;6162590;23;20012;-93
2022/12/13 04:16:31;;;;;;;8.60;6.07;;;;;;;;;;6134318;23;20064;-91
2022/12/13 04:18:59;;;;;;;8.07;5.85;;;;;;;;;;6109849;23;20017;-91
2022/12/13 04:21:28;;;;;;;8.63;6.20;;;;;;;;;;6133857;23;20016;-91
2022/12/13 04:24:05;;;;;;;7.47;5.85;;;;;;;;;;6109533;23;20017;-92
2022/12/13 04:26:31;;;;;;;7.50;6.00;;;;;;;;;;6133895;23;20013;-90
2022/12/13 04:28:57;;;;;;;7.30;5.10;;;;;;;;;;6109693;23;20067;-90
2022/12/13 04:31:26;;;;;;;7.80;5.68;;;;;;;;;;6109880;23;20005;-90
2022/12/13 04:33:53;;;;;;;6.80;5.20;;;;;;;;;;6133921;23;20099;-92
2022/12/13 04:36:19;;;;;;;7.90;5.97;;;;;;;;;;6133685;23;20009;-92
2022/12/13 04:38:45;;;;;;;7.47;5.53;;;;;;;;;;6109577;23;20123;-90
2022/12/13 04:41:17;;;;;;;6.53;5.57;;;;;;;;;;6110253;23;20533;-92
2022/12/13 04:43:43;;;;;;;;;;;;;;;;;;6110017;23;20041;-92
2022/12/13 04:46:08;;;;;;;7.82;5.55;;;;;;;;;;6133772;23;19916;-91
2022/12/13 04:48:40;;;;;;;7.97;5.93;;;;;;;;;;6134432;23;20016;-91
2022/12/13 04:51:09;;;;;;;7.67;5.43;;;;;;;;;;6108990;23;20020;-92
2022/12/13 04:53:38;;;;;;;7.07;5.80;;;;;;;;;;6134138;23;20017;-92
2022/12/13 04:56:06;;;;;;;7.55;5.82;;;;;;;;;;6133862;23;20052;-91
2022/12/13 04:58:33;;;;;;;6.40;5.13;;;;;;;;;;6134040;23;20441;-91
2022/12/13 05:00:59;;;;;;;6.80;5.30;;;;;;;;;;6109309;23;20005;-92
2022/12/13 05:03:27;;;;;;;7.53;5.55;;;;;;;;;;6135147;23;20031;-92
2022/12/13 05:06:06;;;;;;;7.57;5.40;;;;;;;;;;6111163;23;20016;-92
2022/12/13 05:08:36;;;;;;;6.82;5.50;;;;;;;;;;6112381;23;20013;-92
2022/12/13 05:11:05;;;;;;;7.95;5.88;;;;;;;;;;6136550;23;20071;-91
2022/12/13 05:13:33;;;;;;;6.70;5.32;;;;;;;;;;6135720;23;20020;-92
2022/12/13 05:16:00;;;;;;;6.97;5.35;;;;;;;;;;6135587;23;20013;-92
2022/12/13 05:18:29;;;;;;;6.85;5.18;;;;;;;;;;6113083;23;20009;-91
2022/12/13 05:21:01;;;;;;;7.78;5.80;;;;;;;;;;6135015;23;20037;-92
2022/12/13 05:23:29;;;;;;;7.25;5.60;;;;;;;;;;6135316;23;20472;-92
2022/12/13 05:25:58;;;;;;;6.03;5.43;;;;;;;;;;6135249;23;20021;-91
2022/12/13 05:28:26;;;;;;;6.85;5.20;;;;;;;;;;6135473;23;20075;-92
2022/12/13 05:30:55;;;;;;;7.38;5.65;;;;;;;;;;6112113;23;20095;-92
2022/12/13 05:33:24;;;;;;;9.73;5.97;;;;;;;;;;6111429;23;20009;-91
2022/12/13 05:35:53;;;;;;;6.47;4.82;;;;;;;;;;6134688;23;20065;-91
2022/12/13 05:38:21;;;;;;;7.53;5.82;;;;;;;;;;6111176;23;20084;-91
2022/12/13 05:40:49;;;;;;;7.05;5.50;;;;;;;;;;6135304;23;20069;-91
2022/12/13 05:43:16;;;;;;;7.15;5.43;;;;;;;;;;6110915;23;20009;-92
2022/12/13 05:45:48;;;;;;;7.13;5.45;;;;;;;;;;6135638;23;20017;-91
2022/12/13 05:48:13;;;;;;;8.05;5.47;;;;;;;;;;6111035;23;20102;-91
2022/12/13 05:50:39;;;;;;;6.90;5.45;;;;;;;;;;6134877;23;20021;-91
2022/12/13 05:53:12;;;;;;;6.18;5.22;;;;;;;;;;6135913;23;20024;-91
2022/12/13 05:55:45;;;;;;;7.00;5.38;;;;;;;;;;6111911;23;20048;-91
2022/12/13 05:58:18;;;;;;;7.70;5.93;;;;;;;;;;6111679;23;20415;-93
2022/12/13 06:00:50;;;;;;;6.82;5.30;;;;;;;;;;6110709;23;20096;-91
2022/12/13 06:03:21;;;;;;;7.18;4.82;;;;;;;;;;6136206;23;20023;-92
2022/12/13 06:05:56;;;;;;;6.95;5.13;;;;;;;;;;6137303;23;20020;-91
2022/12/13 06:08:31;;;;;;;5.78;4.90;;;;;;;;;;6111634;23;20088;-91
2022/12/13 06:11:06;;;;;;;6.32;4.97;;;;;;;;;;6112010;23;20020;-91
2022/12/13 06:13:40;;;;;;;6.55;5.10;;;;;;;;;;6135830;23;20408;-91
2022/12/13 06:16:10;;;;;;;7.18;5.63;;;;;;;;;;6113547;23;20404;-91
2022/12/13 06:18:42;;;;;;;6.63;4.85;;;;;;;;;;6111705;23;20041;-89
2022/12/13 06:21:13;;;;;;;;;;;;;;;;;;6111280;23;20097;-91
2022/12/13 06:23:45;;;;;;;6.88;5.13;;;;;;;;;;6136005;23;19924;-91
2022/12/13 06:26:17;;;;;;;6.82;5.80;;;;;;;;;;6135256;23;20103;-91
2022/12/13 06:28:47;;;;;;;8.27;5.45;;;;;;;;;;6112340;23;20095;-92
2022/12/13 06:31:47;;;;;;;6.78;5.28;;;;;;;;;;6135894;23;20017;-92
2022/12/13 06:35:43;;;;;;;7.00;5.15;;;;;;;;;;6183240;23;20400;-92
2022/12/13 06:42:42;;;;;;;7.38;4.97;;;;;;;;;;6185067;23;20075;-91
2022/12/13 06:45:43;;;;;;;5.53;4.90;;;;;;;;;;6182343;23;20021;-91
2022/12/13 06:48:14;;;;;;;6.72;5.30;;;;;;;;;;6159956;23;20037;-91
2022/12/13 06:50:45;;;;;;;7.75;5.35;;;;;;;;;;6135183;23;20040;-91
2022/12/13 06:53:46;;;;;;;7.00;5.10;;;;;;;;;;6112160;23;20072;-91
2022/12/13 06:56:20;;;;;;;7.30;5.60;;;;;;;;;;6138371;23;20084;-92
2022/12/13 06:58:54;;;;;;;6.78;5.25;;;;;;;;;;6111886;23;20100;-92
2022/12/13 07:01:37;;;;;;;15.48;7.05;;;;;;;;;;6111141;23;20436;-92
2022/12/13 07:04:30;;;;;;;10.45;5.82;;;;;;;;;;6183829;23;20017;-91
2022/12/13 07:07:01;;;;;;;7.53;5.53;;;;;;;;;;6111035;23;20020;-92
2022/12/13 07:09:39;;;;;;;10.10;6.40;;;;;;;;;;6111639;23;20357;-92
2022/12/13 07:12:15;;;;;;;8.10;5.95;;;;;;;;;;6113095;23;20021;-91
2022/12/13 07:14:48;;;;;;;8.63;5.72;;;;;;;;;;6112700;23;20013;-91
2022/12/13 07:17:21;;;;;;;8.50;6.05;;;;;;;;;;6134919;23;20013;-91
2022/12/13 07:19:54;;;;;;;9.38;6.63;;;;;;;;;;6134549;23;20093;-91
2022/12/13 07:23:17;;;;;;;9.13;6.20;;;;;;;;;;6145365;23;20009;-91
2022/12/13 07:26:50;;;;;;;7.45;5.85;;;;;;;;;;6159970;23;20424;-92
2022/12/13 07:35:49;;;;;;;7.70;5.68;;;;;;;;;;6157787;23;20026;-89
2022/12/13 07:38:23;;;;;;;8.82;6.30;;;;;;;;;;6081488;23;20079;-91
2022/12/13 07:41:15;;;;;;;8.68;6.30;;;;;;;;;;6052163;23;20021;-92
2022/12/13 07:44:40;;;;;;;9.07;6.63;;;;;;;;;;6078328;23;20014;-93
2022/12/13 07:47:10;;;;;;;9.70;6.50;;;;;;;;;;6076309;23;20441;-89
2022/12/13 07:49:41;;;;;;;9.30;6.57;;;;;;;;;;6052652;23;20018;-92
2022/12/13 07:52:17;;;;;;;8.32;6.57;;;;;;;;;;6077109;23;20013;-91
2022/12/13 07:54:54;;;;;;;10.50;6.85;;;;;;;;;;6051802;23;20014;-90
2022/12/13 07:58:03;;;;;;;8.70;6.85;;;;;;;;;;6053054;23;20081;-91
2022/12/13 08:00:33;;;;;;;9.15;7.00;;;;;;;;;;6074829;23;20042;-90
2022/12/13 08:03:06;;;;;;;8.77;7.07;;;;;;;;;;6052424;23;20394;-89
2022/12/13 08:05:44;;;;;;;9.82;7.20;;;;;;;;;;6052360;23;20028;-91
2022/12/13 08:08:34;;;;;;;11.30;6.90;;;;;;;;;;6124412;23;20021;-92
2022/12/13 08:11:11;;;;;;;8.88;6.82;;;;;;;;;;6054796;23;20093;-90
2022/12/13 08:13:54;;;;;;;8.73;6.65;;;;;;;;;;6052543;23;20097;-91
2022/12/13 08:16:26;;;;;;;9.20;6.63;;;;;;;;;;6097870;23;20021;-90
2022/12/13 08:18:57;;;;;;;9.40;7.03;;;;;;;;;;6052606;23;20010;-91
2022/12/13 08:21:58;;;;;;;12.13;8.07;;;;;;;;;;6052544;23;20362;-90
2022/12/13 08:24:34;;;;;;;11.32;8.10;;;;;;;;;;6005762;23;20021;-91
2022/12/13 08:27:02;;;;;;;9.57;7.60;;;;;;;;;;6052014;23;20014;-90
2022/12/13 08:29:44;;;;;;;19.48;10.48;;;;;;;;;;6052255;23;20017;-92
2022/12/13 08:32:27;;;;;;;11.05;7.43;;;;;;;;;;6100058;23;20022;-91
2022/12/13 08:35:33;;;;;;;13.43;9.05;;;;;;;;;;6091774;23;20045;-92
2022/12/13 08:50:24;;;;;;;14.55;8.80;;;;;;;;;;6178601;23;20028;-91
2022/12/13 08:53:06;;;;;;;14.93;8.68;;;;;;;;;;6112300;23;20342;-92
2022/12/13 08:55:42;;;;;;;14.50;9.07;;;;;;;;;;6163146;23;20349;-91
2022/12/13 08:58:21;;;;;;;12.98;8.10;;;;;;;;;;6113248;23;20099;-91
2022/12/13 09:01:07;;;;;;;13.63;9.32;;;;;;;;;;6161172;23;20023;-92
2022/12/13 11:52:22;;;;;;;16.77;9.13;;;;;;;;;;6156723;23;20021;-89
2022/12/13 11:55:16;;;;;;;17.77;9.23;;;;;;;;;;6079861;23;20014;-92
2022/12/13 11:58:03;;;;;;;14.23;8.10;;;;;;;;;;6103709;23;20028;-89
2022/12/13 12:00:49;;;;;;;15.07;8.23;;;;;;;;;;6104844;23;20016;-91
2022/12/13 12:03:22;;;;;;;18.60;7.80;;;;;;;;;;6082663;23;20422;-91
2022/12/13 12:05:57;;;;;;;13.80;8.15;;;;;;;;;;6104622;23;20002;-90
2022/12/13 12:08:55;;;;;;;12.00;7.82;;;;;;;;;;6104609;23;19997;-90
2022/12/13 12:11:27;;;;;;;12.82;7.68;;;;;;;;;;6059028;23;20088;-89
2022/12/13 12:14:09;;;;;;;13.98;8.13;;;;;;;;;;6058122;23;20461;-89
2022/12/13 12:16:35;;;;;;;;;;;;;;;;;;6106654;23;20013;-89
2022/12/13 12:19:00;;;;;;;14.23;7.50;;;;;;;;;;6106921;23;20198;-89
2022/12/13 12:21:32;;;;;;;13.60;8.52;;;;;;;;;;6058474;23;20067;-90
2022/12/13 12:24:01;;;;;;;;;;;;;;;;;;6083127;23;20017;-89
2022/12/13 14:24:20;;;;;;;10.82;6.18;;;;;;;;;;6154495;23;20025;-91
2022/12/13 14:27:03;;;;;;;8.07;5.53;;;;;;;;;;6129563;23;20021;-90
2022/12/13 14:29:36;;;;;;;;;;;;;;;;;;6084040;23;20414;-89
2022/12/13 14:32:18;;;;;;;8.18;5.60;;;;;;;;;;6080502;23;19923;-90
2022/12/13 14:34:43;;;;;;;9.32;5.70;;;;;;;;;;6082931;23;20056;-90
2022/12/13 14:37:29;;;;;;;8.73;5.68;;;;;;;;;;6081018;23;20014;-89
2022/12/13 14:39:55;;;;;;;10.35;5.22;;;;;;;;;;6082145;23;20013;-90
2022/12/13 14:42:23;;;;;;;8.13;5.50;;;;;;;;;;6081207;23;20013;-90
2022/12/13 14:44:49;;;;;;;9.25;5.93;;;;;;;;;;6080657;23;20028;-90
2022/12/13 14:47:14;;;;;;;10.25;5.25;;;;;;;;;;6080222;23;20010;-90
2022/12/13 14:49:41;;;;;;;8.52;5.45;;;;;;;;;;6081163;23;20342;-90
2022/12/13 14:52:14;;;;;;;9.38;5.07;;;;;;;;;;6129214;23;20373;-90
2022/12/13 14:54:49;;;;;;;8.43;5.60;;;;;;;;;;6082183;23;20013;-90
2022/12/13 14:57:17;;;;;;;7.90;5.75;;;;;;;;;;6105867;23;20009;-87
2022/12/13 14:59:46;;;;;;;8.38;5.28;;;;;;;;;;6081031;23;20104;-90
2022/12/13 15:02:15;;;;;;;9.13;6.28;;;;;;;;;;6104446;23;20092;-90
2022/12/13 15:04:40;;;;;;;8.38;4.85;;;;;;;;;;6080636;23;20013;-89
2022/12/13 15:07:06;;;;;;;7.65;5.30;;;;;;;;;;6056957;23;20093;-92
2022/12/13 15:09:38;;;;;;;10.00;5.57;;;;;;;;;;6129052;23;20100;-89
2022/12/13 15:12:14;;;;;;;9.05;5.15;;;;;;;;;;6081294;23;20013;-89
2022/12/13 15:14:45;;;;;;;7.85;5.53;;;;;;;;;;6081651;23;20145;-89
2022/12/13 15:17:33;;;;;;;10.05;5.07;;;;;;;;;;6104728;23;20434;-89
2022/12/13 15:19:59;;;;;;;8.00;5.03;;;;;;;;;;6127624;23;20010;-89
2022/12/13 15:22:25;;;;;;;6.80;4.80;;;;;;;;;;6051293;23;20028;-89
2022/12/13 15:24:50;;;;;;;7.38;4.82;;;;;;;;;;6052099;23;20062;-90
2022/12/13 15:27:20;;;;;;;7.60;4.78;;;;;;;;;;6027878;23;20010;-89
2022/12/13 15:29:46;;;;;;;8.02;5.15;;;;;;;;;;6029224;23;20034;-89
2022/12/13 15:32:18;;;;;;;6.88;5.40;;;;;;;;;;6051944;23;20046;-89
2022/12/13 15:34:45;;;;;;;8.43;5.05;;;;;;;;;;6052650;23;20229;-89
2022/12/13 15:37:16;;;;;;;7.05;4.53;;;;;;;;;;6051879;23;20025;-89
2022/12/13 15:39:45;;;;;;;7.50;4.95;;;;;;;;;;6052043;23;20010;-89
2022/12/13 15:42:30;;;;;;;7.75;4.60;;;;;;;;;;6051255;23;20098;-89
2022/12/13 15:44:59;;;;;;;5.95;4.80;;;;;;;;;;6053589;23;20045;-88
2022/12/13 15:47:24;;;;;;;9.10;5.50;;;;;;;;;;6051628;23;20320;-90
2022/12/13 15:49:53;;;;;;;7.63;5.00;;;;;;;;;;6052073;23;20068;-90
2022/12/13 15:52:27;;;;;;;7.95;4.72;;;;;;;;;;6051557;23;20018;-89
2022/12/13 15:55:01;;;;;;;9.15;5.53;;;;;;;;;;6051820;23;20025;-89
2022/12/13 15:57:51;;;;;;;7.22;4.75;;;;;;;;;;6051658;23;20589;-91
2022/12/13 16:00:16;;;;;;;7.28;4.65;;;;;;;;;;6051285;23;20009;-88
2022/12/13 16:02:50;;;;;;;6.65;5.13;;;;;;;;;;6075485;23;20018;-89
2022/12/13 16:05:29;;;;;;;6.15;4.72;;;;;;;;;;6075857;23;20014;-88
2022/12/13 16:07:55;;;;;;;8.27;5.78;;;;;;;;;;6051782;23;20010;-89
2022/12/13 16:10:22;;;;;;;8.68;5.85;;;;;;;;;;6051925;23;20014;-88
2022/12/13 16:12:50;;;;;;;8.82;5.95;;;;;;;;;;6027860;23;20467;-88
2022/12/13 16:15:23;;;;;;;8.70;5.75;;;;;;;;;;6051604;23;20062;-88
2022/12/13 16:17:53;;;;;;;10.65;6.85;;;;;;;;;;6028194;23;20020;-91
2022/12/13 16:20:19;;;;;;;8.48;6.00;;;;;;;;;;6051920;23;20010;-88
2022/12/13 16:22:45;;;;;;;8.25;5.72;;;;;;;;;;6062528;23;20358;-91
2022/12/13 16:25:11;;;;;;;8.88;5.80;;;;;;;;;;6075768;23;20045;-90
2022/12/13 16:27:37;;;;;;;7.97;6.15;;;;;;;;;;6051567;23;20041;-88
2022/12/13 16:30:11;;;;;;;9.15;5.65;;;;;;;;;;6075638;23;20371;-88
2022/12/13 16:32:37;;;;;;;9.23;6.60;;;;;;;;;;6051716;23;20025;-90
2022/12/13 16:35:03;;;;;;;8.93;5.85;;;;;;;;;;6052065;23;20140;-91
2022/12/13 16:37:29;;;;;;;8.65;6.13;;;;;;;;;;6051877;23;20355;-90
2022/12/13 16:39:54;;;;;;;7.47;5.80;;;;;;;;;;6051959;23;20013;-90
2022/12/13 16:42:20;;;;;;;9.90;6.57;;;;;;;;;;6050817;23;20022;-91
2022/12/13 16:44:45;;;;;;;8.57;6.20;;;;;;;;;;6051446;23;20061;-90
2022/12/13 16:47:11;;;;;;;6.43;4.85;;;;;;;;;;6051012;23;20002;-90
2022/12/13 16:49:36;;;;;;;7.90;5.80;;;;;;;;;;6052043;23;20383;-90
2022/12/13 16:52:04;;;;;;;7.35;5.90;;;;;;;;;;6051755;23;20454;-91
2022/12/13 16:54:30;;;;;;;9.20;5.57;;;;;;;;;;6075168;23;20010;-90
2022/12/13 16:56:55;;;;;;;8.63;5.35;;;;;;;;;;6075019;23;20048;-91
2022/12/13 16:59:22;;;;;;;9.23;5.78;;;;;;;;;;6100412;23;20005;-90
2022/12/13 17:01:49;;;;;;;8.75;5.47;;;;;;;;;;6053393;23;20174;-90
2022/12/13 17:04:16;;;;;;;7.93;5.65;;;;;;;;;;6076828;23;20010;-90
2022/12/13 17:06:41;;;;;;;6.65;5.07;;;;;;;;;;6076870;23;20141;-90
2022/12/13 17:09:07;;;;;;;7.47;5.32;;;;;;;;;;6052956;23;20014;-91
2022/12/13 17:11:33;;;;;;;7.05;5.35;;;;;;;;;;6077027;23;20010;-90
2022/12/13 17:13:58;;;;;;;7.43;5.07;;;;;;;;;;6053195;23;20057;-90
2022/12/13 17:16:24;;;;;;;7.30;5.05;;;;;;;;;;6053296;23;20347;-90
2022/12/13 17:18:49;;;;;;;9.80;5.57;;;;;;;;;;6100977;23;20413;-90
2022/12/13 17:21:15;;;;;;;8.65;6.07;;;;;;;;;;6076792;23;20048;-90
2022/12/13 17:23:41;;;;;;;6.55;5.10;;;;;;;;;;6105984;23;20100;-91
2022/12/13 17:26:08;;;;;;;9.10;5.55;;;;;;;;;;6105589;23;20026;-90
2022/12/13 17:28:33;;;;;;;7.25;5.50;;;;;;;;;;6105971;23;20024;-90
2022/12/13 17:31:10;;;;;;;6.68;5.05;;;;;;;;;;6081810;23;20009;-89
2022/12/13 17:33:36;;;;;;;8.32;5.88;;;;;;;;;;6058248;23;20107;-90
2022/12/13 17:36:03;;;;;;;7.57;4.82;;;;;;;;;;6082048;23;20029;-90
2022/12/13 17:38:28;;;;;;;7.10;5.07;;;;;;;;;;6056626;23;20072;-90
2022/12/13 17:40:54;;;;;;;5.93;4.60;;;;;;;;;;6081186;23;20438;-89
2022/12/13 17:43:21;;;;;;;9.13;4.93;;;;;;;;;;6057390;23;20113;-90
2022/12/13 17:45:46;;;;;;;5.75;3.88;;;;;;;;;;6105336;23;20005;-91
2022/12/13 17:48:12;;;;;;;6.93;4.90;;;;;;;;;;6057492;23;20028;-90
2022/12/13 17:50:38;;;;;;;7.75;4.93;;;;;;;;;;6057249;23;20072;-89
2022/12/13 17:53:04;;;;;;;7.82;4.45;;;;;;;;;;6057644;23;20095;-90
2022/12/13 17:55:30;;;;;;;6.47;4.82;;;;;;;;;;6080712;23;20054;-89
2022/12/13 17:57:55;;;;;;;5.20;3.50;;;;;;;;;;6129826;23;20088;-89
2022/12/13 18:00:21;;;;;;;4.72;3.90;;;;;;;;;;6057137;23;20099;-89
2022/12/13 18:02:47;;;;;;;5.32;3.63;;;;;;;;;;6082085;23;20058;-89
2022/12/13 18:05:12;;;;;;;5.75;3.88;;;;;;;;;;6057347;23;20017;-90
2022/12/13 18:07:39;;;;;;;6.20;3.47;;;;;;;;;;6081795;23;20009;-90
2022/12/13 18:10:06;;;;;;;5.90;4.07;;;;;;;;;;6080507;23;20005;-88
2022/12/13 18:12:32;;;;;;;6.10;4.18;;;;;;;;;;6081326;23;20018;-89
2022/12/13 18:14:57;;;;;;;7.05;3.85;;;;;;;;;;6105537;23;20335;-89
2022/12/13 18:17:24;;;;;;;6.25;3.92;;;;;;;;;;6129448;23;20041;-88
2022/12/13 18:19:49;;;;;;;6.65;4.13;;;;;;;;;;6081076;23;20442;-89
2022/12/13 18:22:14;;;;;;;6.10;3.95;;;;;;;;;;6076073;23;20021;-89
2022/12/13 18:24:40;;;;;;;5.30;3.65;;;;;;;;;;6075532;23;20033;-89
2022/12/13 18:27:05;;;;;;;5.25;3.95;;;;;;;;;;6052528;23;20010;-89
2022/12/13 18:29:31;;;;;;;5.18;3.50;;;;;;;;;;6052247;23;20017;-89
2022/12/13 18:31:56;;;;;;;6.03;3.55;;;;;;;;;;6052477;23;20043;-89
2022/12/13 18:34:21;;;;;;;4.93;3.60;;;;;;;;;;6052676;23;20046;-89
2022/12/13 18:36:47;;;;;;;4.85;3.42;;;;;;;;;;6052114;23;20490;-89
2022/12/13 18:39:12;;;;;;;4.85;3.40;;;;;;;;;;6051664;23;20037;-88
2022/12/13 18:41:39;;;;;;;6.00;4.15;;;;;;;;;;6052221;23;20020;-89
2022/12/13 18:44:08;;;;;;;5.97;3.92;;;;;;;;;;6052953;23;20021;-89
2022/12/13 18:46:34;;;;;;;4.55;3.15;;;;;;;;;;6053718;23;20018;-89
2022/12/13 18:49:00;;;;;;;5.40;3.97;;;;;;;;;;6052763;23;20014;-89
2022/12/13 18:51:32;;;;;;;4.45;3.55;;;;;;;;;;6052107;23;20414;-89
2022/12/13 18:53:58;;;;;;;5.50;3.20;;;;;;;;;;6051791;23;20022;-89
2022/12/13 18:56:30;;;;;;;5.78;3.33;;;;;;;;;;6051620;23;20145;-90
2022/12/13 18:58:59;;;;;;;5.28;3.60;;;;;;;;;;6077171;23;20005;-89
2022/12/13 19:01:26;;;;;;;7.22;4.00;;;;;;;;;;6075650;23;20041;-89
2022/12/13 19:03:55;;;;;;;7.03;3.70;;;;;;;;;;6053568;23;20510;-90
2022/12/13 19:06:47;;;;;;;8.43;4.30;;;;;;;;;;6045746;23;20022;-91
2022/12/13 19:09:29;;;;;;;7.38;3.92;;;;;;;;;;6096922;23;20092;-91
2022/12/13 19:12:01;;;;;;;7.03;3.70;;;;;;;;;;6099595;23;20005;-90
2022/12/13 19:14:46;;;;;;;;;;;;;;;;;;;;;
2022/12/13 19:17:26;;;;;;;6.35;3.75;;;;;;;;;;6101042;23;20113;-90
2022/12/13 19:19:54;;;;;;;5.88;3.92;;;;;;;;;;6073002;23;20009;-90
2022/12/13 19:22:20;;;;;;;6.22;3.50;;;;;;;;;;6055923;23;20009;-90
2022/12/13 19:24:48;;;;;;;7.03;3.80;;;;;;;;;;6080556;23;20006;-90
2022/12/13 19:27:16;;;;;;;5.78;3.85;;;;;;;;;;6104660;23;20016;-90
2022/12/13 19:29:42;;;;;;;7.43;4.03;;;;;;;;;;6081144;23;20014;-90
2022/12/13 19:32:08;;;;;;;7.32;3.33;;;;;;;;;;6080934;23;20021;-90
2022/12/13 19:34:34;;;;;;;5.80;3.45;;;;;;;;;;6057131;23;20040;-91
2022/12/13 19:37:01;;;;;;;4.88;3.38;;;;;;;;;;6080585;23;20013;-91
2022/12/13 19:39:29;;;;;;;4.70;3.40;;;;;;;;;;6056952;23;20418;-89
2022/12/13 19:41:55;;;;;;;5.65;3.42;;;;;;;;;;6080693;23;20018;-89
2022/12/13 19:44:24;;;;;;;5.75;3.15;;;;;;;;;;6080871;23;20025;-92
2022/12/13 19:46:49;;;;;;;5.57;3.35;;;;;;;;;;6105146;23;20101;-89
2022/12/13 19:49:18;;;;;;;4.68;3.10;;;;;;;;;;6057189;23;20068;-90
2022/12/13 19:51:45;;;;;;;6.35;3.22;;;;;;;;;;6080703;23;20021;-89
2022/12/13 19:54:11;;;;;;;5.70;3.28;;;;;;;;;;6080737;23;20020;-90
2022/12/13 19:56:45;;;;;;;4.50;3.08;;;;;;;;;;6056678;23;20013;-89
2022/12/13 19:59:10;;;;;;;4.68;2.80;;;;;;;;;;6081429;23;20041;-89
2022/12/13 20:01:36;;;;;;;5.93;3.17;;;;;;;;;;6080654;23;20109;-90
2022/12/13 20:04:07;;;;;;;6.72;3.53;;;;;;;;;;6057061;23;20446;-89
2022/12/13 20:06:53;;;;;;;6.30;3.55;;;;;;;;;;6080683;23;20009;-89
2022/12/13 20:09:34;;;;;;;5.55;2.42;;;;;;;;;;6080925;23;20037;-91
2022/12/13 20:12:00;;;;;;;5.47;3.80;;;;;;;;;;6080410;23;20010;-91
2022/12/13 20:14:26;;;;;;;4.95;3.10;;;;;;;;;;6080008;23;20122;-90
2022/12/13 20:16:52;;;;;;;6.20;3.90;;;;;;;;;;6080743;23;20021;-89
2022/12/13 20:22:09;;;;;;;5.32;2.88;;;;;;;;;;6062265;23;20089;-91
2022/12/13 20:24:47;;;;;;;6.00;3.47;;;;;;;;;;6051725;23;20109;-90
2022/12/13 20:27:40;;;;;;;6.18;3.65;;;;;;;;;;6052366;23;20060;-92
2022/12/13 20:30:28;;;;;;;4.63;3.17;;;;;;;;;;6082866;23;20435;-89
2022/12/13 20:32:55;;;;;;;4.68;2.72;;;;;;;;;;6052527;23;20017;-90
2022/12/13 20:35:21;;;;;;;4.97;3.17;;;;;;;;;;6054016;23;20014;-91
2022/12/13 20:37:50;;;;;;;4.85;2.90;;;;;;;;;;6077825;23;20085;-90